createdAt,value
2019-03-21T00:01:25.507Z,8.80
2019-03-21T00:04:00.531Z,8.80
2019-03-21T00:06:29.584Z,8.90
2019-03-21T00:08:58.976Z,8.90
2019-03-21T00:12:00.010Z,8.90
2019-03-21T00:14:50.287Z,8.90
2019-03-21T00:17:37.452Z,8.90
2019-03-21T00:20:15.366Z,8.80
2019-03-21T00:22:44.414Z,8.90
2019-03-21T00:25:22.294Z,8.90
2019-03-21T00:27:51.592Z,8.90
2019-03-21T00:30:23.342Z,8.90
2019-03-21T00:32:53.849Z,8.90
2019-03-21T00:35:22.897Z,8.80
2019-03-21T00:37:52.058Z,8.90
2019-03-21T00:40:24.250Z,8.90
2019-03-21T00:42:53.301Z,8.90
2019-03-21T00:45:22.394Z,8.90
2019-03-21T00:47:51.472Z,8.90
2019-03-21T00:50:26.602Z,8.90
2019-03-21T00:52:56.476Z,8.90
2019-03-21T00:55:34.958Z,8.90
2019-03-21T00:58:04.384Z,8.90
2019-03-21T01:00:51.933Z,8.90
2019-03-21T01:03:21.005Z,8.90
2019-03-21T01:05:50.086Z,8.90
2019-03-21T01:08:19.157Z,8.90
2019-03-21T01:10:49.864Z,8.90
2019-03-21T01:13:18.912Z,8.90
2019-03-21T01:15:47.998Z,8.90
2019-03-21T01:18:17.085Z,8.90
2019-03-21T01:20:46.201Z,8.90
2019-03-21T01:23:15.258Z,8.90
2019-03-21T01:25:50.709Z,8.90
2019-03-21T01:28:19.966Z,8.90
2019-03-21T01:30:49.326Z,8.90
2019-03-21T01:33:18.936Z,8.90
2019-03-21T01:35:47.993Z,8.80
2019-03-21T01:38:17.194Z,8.80
2019-03-21T01:40:58.158Z,8.80
2019-03-21T01:43:27.230Z,8.80
2019-03-21T01:45:56.348Z,8.90
2019-03-21T01:48:25.431Z,8.90
2019-03-21T01:50:54.509Z,8.90
2019-03-21T01:53:23.636Z,9.00
2019-03-21T01:55:52.719Z,9.00
2019-03-21T01:58:21.804Z,9.00
2019-03-21T02:00:55.709Z,9.00
2019-03-21T02:03:24.802Z,9.00
2019-03-21T02:05:54.187Z,8.90
2019-03-21T02:08:23.250Z,9.00
2019-03-21T02:10:52.325Z,8.90
2019-03-21T02:13:21.887Z,8.90
2019-03-21T02:15:50.937Z,8.90
2019-03-21T02:18:19.994Z,8.90
2019-03-21T02:20:49.071Z,8.90
2019-03-21T02:23:18.324Z,8.90
2019-03-21T02:25:47.395Z,8.90
2019-03-21T02:28:16.485Z,8.90
2019-03-21T02:30:49.856Z,8.90
2019-03-21T02:33:22.170Z,8.80
2019-03-21T02:35:51.217Z,8.80
2019-03-21T02:38:20.285Z,8.80
2019-03-21T02:40:51.174Z,8.80
2019-03-21T02:43:20.231Z,8.80
2019-03-21T02:45:49.403Z,8.80
2019-03-21T02:48:18.445Z,8.80
2019-03-21T02:50:47.680Z,8.80
2019-03-21T02:53:17.053Z,8.80
2019-03-21T02:55:46.281Z,8.80
2019-03-21T02:58:15.366Z,8.80
2019-03-21T03:00:45.565Z,8.80
2019-03-21T03:03:14.651Z,8.80
2019-03-21T03:05:43.710Z,8.80
2019-03-21T03:08:12.806Z,8.80
2019-03-21T03:10:54.190Z,8.80
2019-03-21T03:13:23.770Z,8.80
2019-03-21T03:15:52.876Z,8.80
2019-03-21T03:18:23.580Z,8.80
2019-03-21T03:20:52.625Z,8.80
2019-03-21T03:23:21.709Z,8.80
2019-03-21T03:25:51.495Z,8.80
2019-03-21T03:28:26.044Z,8.80
2019-03-21T03:30:59.151Z,8.80
2019-03-21T03:33:28.390Z,8.80
2019-03-21T03:35:57.452Z,8.80
2019-03-21T03:38:26.662Z,8.80
2019-03-21T03:40:59.027Z,8.80
2019-03-21T03:43:28.089Z,8.80
2019-03-21T03:45:57.165Z,8.80
2019-03-21T03:48:27.647Z,8.80
2019-03-21T03:50:56.801Z,8.80
2019-03-21T03:53:26.661Z,8.80
2019-03-21T03:55:55.717Z,8.80
2019-03-21T03:58:26.451Z,8.80
2019-03-21T04:00:55.966Z,8.80
2019-03-21T04:03:26.544Z,8.80
2019-03-21T04:05:56.277Z,8.80
2019-03-21T04:08:26.010Z,8.80
2019-03-21T04:10:57.607Z,8.80
2019-03-21T04:13:26.652Z,8.80
2019-03-21T04:15:55.791Z,8.80
2019-03-21T04:18:25.495Z,8.80
2019-03-21T04:21:09.811Z,8.80
2019-03-21T04:23:39.168Z,8.80
2019-03-21T04:26:20.381Z,8.90
2019-03-21T04:28:49.769Z,8.80
2019-03-21T04:31:18.922Z,8.80
2019-03-21T04:33:50.057Z,8.80
2019-03-21T04:36:19.172Z,8.80
2019-03-21T04:38:48.260Z,8.80
2019-03-21T04:41:17.411Z,8.80
2019-03-21T04:43:46.625Z,8.90
2019-03-21T04:46:15.857Z,8.80
2019-03-21T04:48:44.941Z,8.80
2019-03-21T04:51:14.018Z,8.90
2019-03-21T04:53:43.090Z,8.80
2019-03-21T04:56:12.166Z,8.90
2019-03-21T04:58:41.612Z,8.80
2019-03-21T05:01:10.835Z,8.80
2019-03-21T05:03:39.913Z,8.80
2019-03-21T05:06:09.225Z,8.90
2019-03-21T05:08:38.281Z,8.80
2019-03-21T05:11:07.332Z,8.90
2019-03-21T05:13:36.386Z,8.90
2019-03-21T05:16:14.325Z,8.90
2019-03-21T05:18:39.550Z,8.90
2019-03-21T05:21:11.910Z,8.90
2019-03-21T05:23:41.045Z,8.90
2019-03-21T05:26:10.118Z,8.90
2019-03-21T05:28:39.188Z,8.90
2019-03-21T05:31:14.669Z,8.90
2019-03-21T05:33:43.749Z,8.90
2019-03-21T05:36:12.825Z,8.90
2019-03-21T05:38:41.903Z,8.90
2019-03-21T05:41:10.956Z,9.00
2019-03-21T05:43:49.173Z,9.00
2019-03-21T05:46:26.451Z,9.00
2019-03-21T05:48:50.141Z,9.00
2019-03-21T05:51:19.226Z,9.00
2019-03-21T05:53:48.302Z,9.10
2019-03-21T05:56:17.382Z,9.10
2019-03-21T05:58:46.458Z,9.10
2019-03-21T06:01:15.504Z,9.10
2019-03-21T06:03:46.916Z,9.10
2019-03-21T06:06:34.025Z,9.10
2019-03-21T06:09:04.350Z,9.10
2019-03-21T06:11:33.761Z,9.20
2019-03-21T06:14:02.824Z,9.20
2019-03-21T06:16:37.518Z,9.30
2019-03-21T06:19:11.781Z,9.30
2019-03-21T06:22:02.210Z,9.40
2019-03-21T06:24:34.622Z,9.30
2019-03-21T06:27:15.886Z,9.40
2019-03-21T06:29:46.852Z,9.40
2019-03-21T06:32:15.928Z,9.40
2019-03-21T06:34:44.997Z,9.50
2019-03-21T06:37:14.074Z,9.50
2019-03-21T06:39:43.163Z,9.50
2019-03-21T06:42:12.236Z,9.60
2019-03-21T06:44:41.318Z,9.60
2019-03-21T06:47:10.365Z,9.60
2019-03-21T06:49:39.413Z,9.70
2019-03-21T06:52:08.464Z,9.70
2019-03-21T06:54:37.534Z,9.70
2019-03-21T06:57:06.615Z,9.80
2019-03-21T06:59:35.694Z,9.80
2019-03-21T07:02:04.740Z,9.80
2019-03-21T07:04:33.789Z,9.90
2019-03-21T07:07:07.979Z,9.90
2019-03-21T07:09:33.592Z,9.90
2019-03-21T07:12:02.641Z,9.90
2019-03-21T07:14:31.696Z,10.00
2019-03-21T07:17:00.972Z,10.10
2019-03-21T07:19:30.182Z,10.10
2019-03-21T07:21:59.236Z,10.10
2019-03-21T07:24:28.355Z,10.10
2019-03-21T07:26:57.413Z,10.00
2019-03-21T07:29:26.504Z,10.00
2019-03-21T07:31:55.558Z,10.10
2019-03-21T07:34:24.609Z,10.10
2019-03-21T07:36:53.998Z,10.20
2019-03-21T07:39:23.121Z,10.20
2019-03-21T07:41:52.279Z,10.30
2019-03-21T07:44:21.366Z,10.20
2019-03-21T07:46:50.451Z,10.20
2019-03-21T07:49:19.496Z,10.20
2019-03-21T07:51:48.601Z,10.30
2019-03-21T07:54:17.678Z,10.30
2019-03-21T07:56:46.754Z,10.40
2019-03-21T07:59:15.877Z,10.40
2019-03-21T08:01:44.971Z,10.50
2019-03-21T08:04:14.126Z,10.30
2019-03-21T08:06:52.196Z,10.40
2019-03-21T08:09:21.260Z,10.30
2019-03-21T08:11:50.316Z,10.40
2019-03-21T08:14:19.417Z,10.50
2019-03-21T08:16:48.461Z,10.30
2019-03-21T08:19:17.541Z,10.30
2019-03-21T08:21:46.587Z,10.30
2019-03-21T08:24:21.409Z,10.30
2019-03-21T08:26:50.498Z,10.40
2019-03-21T08:29:19.545Z,10.30
2019-03-21T08:31:48.608Z,10.40
2019-03-21T08:34:17.695Z,10.50
2019-03-21T08:36:52.508Z,10.50
2019-03-21T08:39:21.592Z,10.40
2019-03-21T08:41:50.682Z,10.50
2019-03-21T08:44:19.825Z,10.50
2019-03-21T08:46:48.902Z,10.70
2019-03-21T08:49:25.661Z,10.60
2019-03-21T08:51:54.773Z,10.70
2019-03-21T08:54:23.829Z,10.70
2019-03-21T08:56:52.913Z,10.70
2019-03-21T08:59:21.960Z,10.80
2019-03-21T09:01:51.277Z,10.90
2019-03-21T09:04:20.367Z,10.90
2019-03-21T09:06:49.414Z,10.90
2019-03-21T09:09:18.492Z,10.90
2019-03-21T09:11:47.597Z,10.80
2019-03-21T09:14:18.606Z,10.80
2019-03-21T09:16:47.652Z,10.90
2019-03-21T09:19:17.117Z,10.90
2019-03-21T09:21:46.198Z,10.90
2019-03-21T09:24:15.285Z,11.00
2019-03-21T09:26:44.435Z,11.30
2019-03-21T09:29:13.526Z,11.40
2019-03-21T09:31:42.569Z,11.40
2019-03-21T09:34:11.649Z,11.60
2019-03-21T09:36:40.701Z,11.60
2019-03-21T09:39:09.794Z,11.60
2019-03-21T09:41:38.874Z,11.40
2019-03-21T09:44:07.959Z,11.60
2019-03-21T09:46:37.030Z,11.80
2019-03-21T09:49:06.125Z,11.90
2019-03-21T09:51:35.569Z,11.80
2019-03-21T09:54:09.810Z,11.90
2019-03-21T09:56:35.470Z,11.90
2019-03-21T09:59:04.559Z,11.80
2019-03-21T10:01:33.605Z,12.10
2019-03-21T10:04:02.662Z,12.30
2019-03-21T10:06:31.893Z,12.60
2019-03-21T10:09:01.152Z,12.60
2019-03-21T10:11:30.662Z,12.80
2019-03-21T10:14:00.014Z,13.00
2019-03-21T10:16:30.809Z,12.70
2019-03-21T10:18:59.905Z,12.40
2019-03-21T10:21:29.118Z,12.80
2019-03-21T10:23:58.201Z,12.90
2019-03-21T10:26:27.245Z,12.90
2019-03-21T10:28:56.317Z,12.10
2019-03-21T10:31:29.354Z,12.20
2019-03-21T10:33:58.405Z,12.00
2019-03-21T10:36:27.468Z,11.90
2019-03-21T10:38:56.554Z,11.90
2019-03-21T10:41:25.637Z,12.10
2019-03-21T10:43:54.718Z,12.10
2019-03-21T10:46:23.764Z,11.90
2019-03-21T10:48:52.825Z,12.00
2019-03-21T10:51:21.910Z,12.10
2019-03-21T10:53:51.470Z,12.00
2019-03-21T10:56:20.730Z,12.30
2019-03-21T10:58:50.545Z,12.20
2019-03-21T11:01:19.672Z,12.40
2019-03-21T11:03:48.724Z,12.30
2019-03-21T11:06:17.809Z,12.30
2019-03-21T11:08:46.856Z,12.20
2019-03-21T11:11:15.941Z,12.30
2019-03-21T11:13:45.101Z,12.40
2019-03-21T11:16:14.174Z,12.50
2019-03-21T11:18:43.224Z,12.40
2019-03-21T11:21:12.315Z,12.30
2019-03-21T11:23:41.554Z,12.50
2019-03-21T11:26:10.668Z,12.30
2019-03-21T11:28:39.720Z,12.20
2019-03-21T11:31:08.809Z,12.10
2019-03-21T11:33:37.970Z,12.10
2019-03-21T11:36:07.092Z,12.20
2019-03-21T11:38:36.217Z,12.20
2019-03-21T11:41:05.320Z,12.20
2019-03-21T11:43:34.467Z,11.90
2019-03-21T11:46:03.615Z,11.80
2019-03-21T11:48:33.038Z,11.70
2019-03-21T11:51:02.132Z,11.90
2019-03-21T11:53:31.246Z,11.90
2019-03-21T11:56:39.871Z,11.90
2019-03-21T11:59:09.510Z,12.00
2019-03-21T12:01:38.591Z,12.20
2019-03-21T12:04:07.661Z,12.20
2019-03-21T12:06:36.750Z,12.10
2019-03-21T12:09:07.071Z,12.10
2019-03-21T12:11:36.160Z,12.10
2019-03-21T12:14:05.280Z,12.20
2019-03-21T12:16:34.361Z,12.30
2019-03-21T12:19:03.480Z,12.20
2019-03-21T12:21:32.543Z,12.30
2019-03-21T12:24:01.626Z,12.20
2019-03-21T12:26:35.147Z,12.50
2019-03-21T12:29:04.229Z,12.40
2019-03-21T12:31:33.288Z,12.30
2019-03-21T12:34:02.381Z,12.40
2019-03-21T12:36:31.466Z,12.50
2019-03-21T12:39:01.500Z,12.60
2019-03-21T12:41:30.574Z,12.60
2019-03-21T12:43:59.624Z,12.60
2019-03-21T12:46:28.711Z,12.70
2019-03-21T12:48:57.862Z,12.60
2019-03-21T12:51:26.946Z,12.50
2019-03-21T12:53:55.992Z,12.50
2019-03-21T12:56:25.049Z,12.40
2019-03-21T12:58:54.105Z,12.30
2019-03-21T13:01:23.161Z,12.30
2019-03-21T13:03:52.251Z,12.20
2019-03-21T13:06:21.330Z,12.10
2019-03-21T13:08:50.457Z,12.20
2019-03-21T13:11:19.509Z,12.30
2019-03-21T13:13:48.585Z,12.40
2019-03-21T13:16:17.654Z,12.20
2019-03-21T13:18:47.007Z,12.10
2019-03-21T13:21:16.102Z,12.20
2019-03-21T13:23:45.178Z,12.40
2019-03-21T13:26:14.266Z,12.20
2019-03-21T13:28:43.344Z,12.20
2019-03-21T13:31:12.427Z,12.20
2019-03-21T13:33:47.414Z,12.10
2019-03-21T13:36:16.502Z,12.00
2019-03-21T13:38:45.582Z,12.10
2019-03-21T13:41:14.805Z,12.10
2019-03-21T13:43:43.865Z,12.10
2019-03-21T13:46:12.950Z,12.00
2019-03-21T13:48:42.309Z,12.00
2019-03-21T13:51:11.429Z,12.10
2019-03-21T13:53:40.581Z,12.20
2019-03-21T13:56:09.670Z,12.20
2019-03-21T13:58:38.756Z,12.20
2019-03-21T14:01:07.801Z,12.10
2019-03-21T14:03:36.886Z,12.20
2019-03-21T14:06:06.034Z,12.30
2019-03-21T14:08:35.126Z,12.40
2019-03-21T14:11:04.345Z,12.30
2019-03-21T14:13:33.441Z,12.30
2019-03-21T14:16:02.522Z,12.10
2019-03-21T14:18:32.077Z,12.30
2019-03-21T14:21:01.130Z,12.50
2019-03-21T14:23:30.189Z,12.50
2019-03-21T14:25:59.421Z,12.40
2019-03-21T14:28:28.464Z,12.50
2019-03-21T14:30:57.555Z,12.50
2019-03-21T14:33:26.600Z,12.60
2019-03-21T14:35:55.928Z,12.40
2019-03-21T14:38:26.667Z,12.50
2019-03-21T14:40:55.838Z,12.50
2019-03-21T14:43:24.917Z,12.40
2019-03-21T14:45:54.746Z,12.30
2019-03-21T14:48:23.804Z,12.50
2019-03-21T14:50:52.873Z,12.50
2019-03-21T14:53:28.863Z,12.60
2019-03-21T14:55:52.773Z,12.70
2019-03-21T14:58:21.825Z,12.80
2019-03-21T15:00:50.906Z,12.70
2019-03-21T15:03:19.965Z,12.40
2019-03-21T15:05:49.021Z,12.20
2019-03-21T15:08:18.090Z,12.30
2019-03-21T15:10:47.172Z,12.20
2019-03-21T15:13:16.289Z,12.20
2019-03-21T15:15:45.385Z,12.20
2019-03-21T15:18:14.512Z,12.20
2019-03-21T15:20:43.598Z,12.20
2019-03-21T15:23:12.694Z,12.20
2019-03-21T15:25:41.843Z,12.20
2019-03-21T15:28:10.969Z,12.20
2019-03-21T15:30:40.089Z,12.30
2019-03-21T15:33:09.438Z,12.30
2019-03-21T15:35:38.489Z,12.40
2019-03-21T15:38:07.629Z,12.60
2019-03-21T15:40:36.709Z,12.60
2019-03-21T15:43:05.794Z,12.80
2019-03-21T15:45:34.849Z,12.60
2019-03-21T15:48:03.938Z,12.70
2019-03-21T15:50:38.169Z,12.60
2019-03-21T15:53:07.326Z,12.80
2019-03-21T15:55:36.540Z,12.60
2019-03-21T15:58:05.656Z,12.70
2019-03-21T16:00:39.691Z,12.80
2019-03-21T16:03:10.011Z,13.10
2019-03-21T16:05:39.056Z,13.20
2019-03-21T16:08:09.167Z,13.20
2019-03-21T16:10:38.643Z,13.00
2019-03-21T16:13:07.838Z,13.00
2019-03-21T16:15:36.959Z,12.80
2019-03-21T16:18:06.044Z,12.80
2019-03-21T16:20:35.131Z,12.80
2019-03-21T16:23:04.176Z,12.50
2019-03-21T16:25:33.713Z,12.50
2019-03-21T16:28:02.969Z,12.50
2019-03-21T16:30:32.033Z,12.50
2019-03-21T16:33:01.386Z,12.40
2019-03-21T16:35:30.498Z,12.30
2019-03-21T16:37:59.546Z,12.30
2019-03-21T16:40:28.604Z,12.50
2019-03-21T16:42:57.702Z,12.50
2019-03-21T16:45:27.018Z,12.70
2019-03-21T16:47:56.137Z,12.70
2019-03-21T16:50:25.205Z,12.80
2019-03-21T16:52:54.604Z,12.80
2019-03-21T16:55:23.694Z,12.50
2019-03-21T16:57:52.849Z,12.20
2019-03-21T17:00:21.934Z,12.00
2019-03-21T17:02:50.980Z,11.60
2019-03-21T17:05:22.313Z,11.30
2019-03-21T17:07:50.958Z,11.10
2019-03-21T17:10:20.016Z,10.80
2019-03-21T17:12:49.447Z,10.60
2019-03-21T17:15:19.126Z,10.40
2019-03-21T17:17:48.256Z,10.10
2019-03-21T17:20:17.305Z,9.90
2019-03-21T17:22:46.353Z,9.70
2019-03-21T17:25:15.476Z,9.60
2019-03-21T17:27:44.525Z,9.40
2019-03-21T17:30:14.908Z,9.30
2019-03-21T17:32:43.993Z,9.10
2019-03-21T17:35:13.044Z,9.00
2019-03-21T17:37:42.122Z,8.80
2019-03-21T17:40:15.196Z,8.80
2019-03-21T17:42:44.244Z,8.70
2019-03-21T17:45:18.280Z,8.60
2019-03-21T17:47:47.370Z,8.40
2019-03-21T17:50:19.465Z,8.40
2019-03-21T17:52:48.521Z,8.30
2019-03-21T17:55:17.576Z,8.20
2019-03-21T17:57:46.632Z,8.10
2019-03-21T18:00:21.856Z,8.00
2019-03-21T18:02:50.916Z,7.90
2019-03-21T18:05:19.968Z,7.90
2019-03-21T18:07:50.074Z,7.90
2019-03-21T18:10:27.077Z,7.80
2019-03-21T18:12:56.211Z,7.70
2019-03-21T18:15:25.418Z,7.70
2019-03-21T18:17:54.468Z,7.50
2019-03-21T18:20:23.555Z,7.50
2019-03-21T18:22:52.605Z,7.40
2019-03-21T18:25:21.658Z,7.40
2019-03-21T18:27:51.525Z,7.30
2019-03-21T18:30:20.606Z,7.20
2019-03-21T18:32:49.689Z,7.10
2019-03-21T18:35:18.773Z,7.10
2019-03-21T18:37:47.866Z,7.00
2019-03-21T18:40:16.954Z,6.90
2019-03-21T18:42:46.035Z,6.90
2019-03-21T18:45:15.453Z,6.80
2019-03-21T18:47:44.541Z,6.70
2019-03-21T18:50:14.934Z,6.70
2019-03-21T18:52:44.054Z,6.70
2019-03-21T18:55:13.146Z,6.60
2019-03-21T18:57:42.291Z,6.60
2019-03-21T19:00:21.493Z,6.50
2019-03-21T19:02:50.548Z,6.50
2019-03-21T19:05:19.629Z,6.50
2019-03-21T19:07:48.715Z,6.40
2019-03-21T19:10:17.902Z,6.40
2019-03-21T19:12:47.054Z,6.30
2019-03-21T19:15:16.871Z,6.30
2019-03-21T19:17:45.924Z,6.20
2019-03-21T19:20:17.385Z,6.20
2019-03-21T19:22:46.841Z,6.10
2019-03-21T19:25:18.933Z,6.10
2019-03-21T19:27:47.007Z,6.10
2019-03-21T19:30:18.454Z,6.00
2019-03-21T19:32:47.778Z,6.00
2019-03-21T19:35:16.854Z,5.90
2019-03-21T19:37:45.904Z,5.90
2019-03-21T19:40:17.850Z,5.80
2019-03-21T19:42:46.982Z,5.80
2019-03-21T19:45:17.471Z,5.70
2019-03-21T19:47:46.595Z,5.70
2019-03-21T19:50:20.373Z,5.60
2019-03-21T19:52:49.688Z,5.60
2019-03-21T19:55:30.284Z,5.60
2019-03-21T19:57:49.781Z,5.50
2019-03-21T20:00:23.470Z,5.50
2019-03-21T20:02:52.617Z,5.60
2019-03-21T20:05:21.689Z,5.50
2019-03-21T20:07:50.778Z,5.50
2019-03-21T20:10:21.462Z,5.50
2019-03-21T20:12:50.521Z,5.40
2019-03-21T20:15:19.632Z,5.40
2019-03-21T20:17:48.691Z,5.40
2019-03-21T20:20:19.371Z,5.40
2019-03-21T20:22:48.449Z,5.30
2019-03-21T20:25:17.670Z,5.40
2019-03-21T20:27:46.745Z,5.40
2019-03-21T20:30:19.083Z,5.20
2019-03-21T20:32:48.172Z,5.10
2019-03-21T20:35:17.252Z,5.10
2019-03-21T20:37:46.342Z,5.10
2019-03-21T20:40:17.605Z,5.10
2019-03-21T20:42:46.701Z,5.00
2019-03-21T20:45:17.648Z,5.00
2019-03-21T20:47:46.734Z,5.00
2019-03-21T20:50:15.782Z,5.00
2019-03-21T20:52:44.869Z,4.90
2019-03-21T20:55:13.911Z,4.90
2019-03-21T20:57:42.985Z,4.90
2019-03-21T21:00:22.069Z,4.90
2019-03-21T21:02:51.286Z,4.80
2019-03-21T21:05:22.901Z,4.80
2019-03-21T21:07:51.115Z,4.80
2019-03-21T21:10:20.229Z,4.80
2019-03-21T21:12:49.281Z,4.70
2019-03-21T21:15:18.366Z,4.60
2019-03-21T21:17:47.447Z,4.60
2019-03-21T21:20:17.524Z,4.60
2019-03-21T21:22:46.589Z,4.50
2019-03-21T21:25:15.840Z,4.50
2019-03-21T21:27:49.831Z,4.50
2019-03-21T21:30:20.074Z,4.50
2019-03-21T21:32:49.277Z,4.50
2019-03-21T21:35:18.353Z,4.40
2019-03-21T21:37:47.407Z,4.40
2019-03-21T21:40:17.126Z,4.40
2019-03-21T21:42:46.880Z,4.40
2019-03-21T21:45:16.771Z,4.40
2019-03-21T21:47:45.930Z,4.30
2019-03-21T21:50:16.153Z,4.30
2019-03-21T21:52:45.233Z,4.20
2019-03-21T21:55:14.278Z,4.20
2019-03-21T21:57:43.326Z,4.10
2019-03-21T22:00:22.077Z,4.20
2019-03-21T22:02:51.222Z,4.20
2019-03-21T22:05:20.445Z,4.20
2019-03-21T22:07:49.495Z,4.10
2019-03-21T22:10:18.548Z,4.10
2019-03-21T22:12:47.633Z,4.10
2019-03-21T22:15:16.982Z,4.10
2019-03-21T22:17:46.070Z,4.10
2019-03-21T22:20:15.768Z,4.10
2019-03-21T22:22:44.820Z,4.10
2019-03-21T22:25:13.909Z,4.10
2019-03-21T22:27:43.051Z,4.10
2019-03-21T22:30:17.066Z,4.00
2019-03-21T22:32:46.170Z,4.00
2019-03-21T22:35:15.322Z,4.10
2019-03-21T22:37:44.399Z,4.20
2019-03-21T22:40:15.686Z,4.20
2019-03-21T22:42:44.770Z,4.30
2019-03-21T22:45:14.997Z,4.40
2019-03-21T22:47:44.075Z,4.40
2019-03-21T22:50:16.667Z,4.50
2019-03-21T22:52:45.896Z,4.60
2019-03-21T22:55:15.048Z,4.70
2019-03-21T22:57:44.164Z,4.80
2019-03-21T23:00:21.536Z,4.90
2019-03-21T23:02:50.644Z,4.90
2019-03-21T23:05:20.090Z,4.90
2019-03-21T23:07:49.148Z,4.80
2019-03-21T23:10:18.234Z,4.80
2019-03-21T23:12:47.289Z,4.90
2019-03-21T23:15:16.341Z,4.80
2019-03-21T23:17:45.430Z,4.80
2019-03-21T23:20:15.248Z,4.90
2019-03-21T23:22:44.424Z,5.00
2019-03-21T23:25:16.466Z,5.10
2019-03-21T23:27:44.973Z,5.20
2019-03-21T23:30:17.316Z,5.30
2019-03-21T23:32:46.477Z,5.30
2019-03-21T23:35:15.609Z,5.40
2019-03-21T23:37:44.693Z,5.40
2019-03-21T23:40:15.030Z,5.50
2019-03-21T23:42:44.145Z,5.60
2019-03-21T23:45:13.810Z,5.60
2019-03-21T23:47:42.848Z,5.70
2019-03-21T23:50:14.903Z,5.80
2019-03-21T23:52:44.263Z,5.80
2019-03-21T23:55:13.308Z,5.90
2019-03-21T23:57:42.388Z,5.90
